Time;durP1;ratioP1;P1;durP2;ratioP2;P2;SDS_P1;SDS_P2;PMS_P1;PMS_P2;Temp;Humidity;BMP_temperature;BMP_pressure;BME280_temperature;BME280_humidity;BME280_pressure;Samples;Min_cycle;Max_cycle;Signal;HPM_P1;HPM_P2
2024/01/15 00:00:41;;;;;;;17.95;2.08;;;;;;;1.10;100.00;100519.34;5054972;28;20036;-82
2024/01/15 00:03:06;;;;;;;21.50;2.28;;;;;;;0.93;100.00;100520.28;5054247;28;20473;-81
2024/01/15 00:05:32;;;;;;;12.27;1.90;;;;;;;0.76;100.00;100520.38;5054974;28;20040;-81
2024/01/15 00:07:57;;;;;;;18.42;1.95;;;;;;;0.62;100.00;100514.09;5054356;28;20052;-82
2024/01/15 00:10:23;;;;;;;14.43;1.58;;;;;;;0.57;100.00;100504.81;5052566;28;20044;-81
2024/01/15 00:12:48;;;;;;;14.07;1.88;;;;;;;0.64;100.00;100504.41;5054438;28;20029;-82
2024/01/15 00:15:14;;;;;;;12.88;2.15;;;;;;;0.72;100.00;100496.13;5053968;28;20538;-83
2024/01/15 00:17:40;;;;;;;10.98;1.45;;;;;;;0.78;100.00;100495.78;5054319;28;20037;-81
2024/01/15 00:20:06;;;;;;;7.47;1.73;;;;;;;0.82;100.00;100492.06;5053756;28;20468;-80
2024/01/15 00:22:31;;;;;;;10.40;2.05;;;;;;;0.88;100.00;100493.50;5052174;28;20394;-81
2024/01/15 00:24:57;;;;;;;12.25;1.70;;;;;;;0.96;100.00;100483.44;5053981;28;20025;-81
2024/01/15 00:27:23;;;;;;;11.75;1.85;;;;;;;1.00;100.00;100477.09;5053454;28;20511;-82
2024/01/15 00:29:50;;;;;;;9.80;1.08;;;;;;;1.11;100.00;100480.91;5053909;28;20029;-81
2024/01/15 00:32:15;;;;;;;11.55;1.42;;;;;;;1.15;100.00;100477.16;5053451;28;20033;-82
2024/01/15 00:34:41;;;;;;;15.05;1.67;;;;;;;1.18;100.00;100466.47;5053851;28;20135;-82
2024/01/15 00:37:06;;;;;;;5.75;1.13;;;;;;;1.20;100.00;100470.72;5053339;28;20049;-79
2024/01/15 00:39:32;;;;;;;10.10;2.25;;;;;;;1.16;100.00;100474.44;5053483;28;20097;-81
2024/01/15 00:41:57;;;;;;;13.20;1.92;;;;;;;1.09;100.00;100469.63;5053862;28;20438;-81
2024/01/15 00:44:23;;;;;;;10.50;2.28;;;;;;;1.03;100.00;100465.59;5053254;28;20033;-81
2024/01/15 00:46:48;;;;;;;8.98;1.52;;;;;;;1.13;100.00;100474.63;5051900;28;20146;-81
2024/01/15 00:49:14;;;;;;;12.95;1.60;;;;;;;1.16;100.00;100470.97;5051862;28;20058;-80
2024/01/15 00:51:40;;;;;;;7.40;1.42;;;;;;;1.22;100.00;100468.00;5053694;28;20413;-81
2024/01/15 00:54:05;;;;;;;9.40;1.35;;;;;;;1.29;100.00;100455.41;5053587;28;20029;-81
2024/01/15 00:56:31;;;;;;;12.95;1.98;;;;;;;1.32;100.00;100453.44;5053091;28;20327;-82
2024/01/15 00:58:56;;;;;;;8.85;1.23;;;;;;;1.36;100.00;100454.97;5053489;28;20079;-81
2024/01/15 01:01:21;;;;;;;7.90;1.20;;;;;;;1.34;100.00;100451.56;5053298;28;20428;-81
2024/01/15 01:03:47;;;;;;;14.45;2.33;;;;;;;1.39;100.00;100449.53;5052011;28;20123;-81
2024/01/15 01:06:12;;;;;;;8.00;1.50;;;;;;;1.41;100.00;100447.66;5053849;28;20537;-81
2024/01/15 01:08:38;;;;;;;11.38;1.85;;;;;;;1.38;100.00;100453.09;5053902;28;20588;-81
2024/01/15 01:11:04;;;;;;;10.55;1.52;;;;;;;1.38;100.00;100452.25;5053704;28;20059;-82
2024/01/15 01:13:29;;;;;;;8.75;1.88;;;;;;;1.34;100.00;100454.19;5053135;28;20493;-80
2024/01/15 01:15:55;;;;;;;14.35;1.40;;;;;;;1.37;100.00;100455.78;5054023;28;20040;-81
2024/01/15 01:18:20;;;;;;;8.07;1.65;;;;;;;1.33;100.00;100454.28;5054127;28;20106;-74
2024/01/15 01:20:45;;;;;;;8.20;1.25;;;;;;;1.27;100.00;100458.13;5054731;28;20040;-75
2024/01/15 01:23:11;;;;;;;16.17;1.48;;;;;;;1.15;100.00;100458.81;5054418;28;20128;-75
2024/01/15 01:25:36;;;;;;;12.25;1.77;;;;;;;1.09;100.00;100457.41;5054529;28;20114;-75
2024/01/15 01:28:01;;;;;;;19.35;1.92;;;;;;;1.04;100.00;100455.00;5054509;28;20094;-74
2024/01/15 01:30:27;;;;;;;5.75;0.82;;;;;;;0.93;100.00;100443.47;5054476;28;20094;-77
2024/01/15 01:32:52;;;;;;;7.32;1.45;;;;;;;0.84;100.00;100447.47;5054545;28;20428;-75
2024/01/15 01:35:17;;;;;;;4.07;1.00;;;;;;;0.78;100.00;100450.44;5054366;28;20099;-75
2024/01/15 01:37:42;;;;;;;10.75;1.63;;;;;;;0.75;100.00;100451.44;5054342;28;20433;-75
2024/01/15 01:40:08;;;;;;;16.27;1.75;;;;;;;0.78;100.00;100440.78;5054604;28;20359;-74
2024/01/15 01:42:33;;;;;;;7.18;1.60;;;;;;;0.79;100.00;100445.09;5053191;28;20037;-76
2024/01/15 01:44:59;;;;;;;11.65;1.80;;;;;;;0.85;100.00;100450.00;5053974;28;20509;-75
2024/01/15 01:47:26;;;;;;;19.67;1.52;;;;;;;0.81;100.00;100447.63;5036517;28;20029;-75
2024/01/15 01:49:52;;;;;;;7.88;1.58;;;;;;;0.82;100.00;100444.06;5054446;28;20025;-75
2024/01/15 01:52:18;;;;;;;9.48;1.67;;;;;;;0.80;100.00;100435.47;5052942;28;20040;-75
2024/01/15 01:54:43;;;;;;;6.05;1.10;;;;;;;0.80;100.00;100440.69;5054061;28;20037;-74
2024/01/15 01:57:10;;;;;;;6.07;1.00;;;;;;;0.80;100.00;100445.94;5053150;28;20377;-75
2024/01/15 01:59:36;;;;;;;7.03;1.30;;;;;;;0.77;100.00;100441.72;5054464;28;20036;-74
2024/01/15 02:02:03;;;;;;;3.67;0.90;;;;;;;0.82;100.00;100444.94;5053671;28;20052;-75
2024/01/15 02:04:29;;;;;;;3.72;0.80;;;;;;;0.88;100.00;100439.34;5053760;28;20503;-75
2024/01/15 02:06:55;;;;;;;7.47;1.50;;;;;;;0.90;100.00;100436.63;5053357;28;20058;-75
2024/01/15 02:09:21;;;;;;;12.05;0.95;;;;;;;0.86;100.00;100441.19;5053777;28;20032;-75
2024/01/15 02:11:47;;;;;;;5.22;1.13;;;;;;;0.83;100.00;100422.19;5053440;28;20040;-75
2024/01/15 02:14:13;;;;;;;4.13;0.70;;;;;;;0.83;100.00;100423.03;5053704;28;20037;-74
2024/01/15 02:16:39;;;;;;;6.40;0.80;;;;;;;0.82;100.00;100423.97;5053844;28;20061;-75
2024/01/15 02:19:04;;;;;;;9.90;1.08;;;;;;;0.76;100.00;100419.09;5053647;28;20064;-75
2024/01/15 02:21:31;;;;;;;11.45;1.13;;;;;;;0.78;100.00;100425.06;5053568;28;20048;-75
2024/01/15 02:23:56;;;;;;;10.88;1.33;;;;;;;0.75;100.00;100422.63;5053525;28;20033;-73
2024/01/15 02:26:22;;;;;;;6.72;0.80;;;;;;;0.72;100.00;100416.69;5052508;28;20040;-74
2024/01/15 02:28:48;;;;;;;5.78;0.60;;;;;;;0.70;100.00;100435.97;5053408;28;20033;-75
2024/01/15 02:31:13;;;;;;;11.65;1.10;;;;;;;0.72;100.00;100420.19;5053728;28;20035;-75
2024/01/15 02:33:38;;;;;;;8.75;1.45;;;;;;;0.79;100.00;100408.44;5053147;28;20040;-75
2024/01/15 02:36:04;;;;;;;3.65;0.82;;;;;;;0.86;100.00;100408.91;5053417;28;20065;-76
2024/01/15 02:38:29;;;;;;;4.53;0.88;;;;;;;0.85;100.00;100410.69;5051618;28;20519;-74
2024/01/15 02:40:55;;;;;;;11.68;1.30;;;;;;;0.85;100.00;100408.09;5053324;28;20326;-75
2024/01/15 02:43:20;;;;;;;7.50;1.33;;;;;;;0.83;100.00;100406.47;5051626;28;20473;-75
2024/01/15 02:45:46;;;;;;;5.85;0.77;;;;;;;0.84;100.00;100405.56;5052968;28;20183;-74
2024/01/15 02:48:12;;;;;;;5.45;1.25;;;;;;;0.89;100.00;100400.88;5053120;28;20041;-75
2024/01/15 02:50:37;;;;;;;5.13;0.93;;;;;;;0.95;100.00;100404.94;5053102;28;20029;-75
2024/01/15 02:53:03;;;;;;;8.13;0.93;;;;;;;1.05;100.00;100408.72;5053238;28;20078;-75
2024/01/15 02:55:29;;;;;;;6.13;0.98;;;;;;;1.28;100.00;100415.22;5051462;28;20397;-79
2024/01/15 02:57:55;;;;;;;4.50;1.33;;;;;;;1.47;100.00;100411.53;5053099;28;20090;-75
2024/01/15 03:00:20;;;;;;;10.55;1.30;;;;;;;1.52;100.00;100420.81;5053134;28;20416;-75
2024/01/15 03:02:46;;;;;;;12.48;1.83;;;;;;;1.52;100.00;100407.72;5052793;28;20021;-74
2024/01/15 03:05:11;;;;;;;7.57;1.63;;;;;;;1.46;100.00;100404.59;5053121;28;20037;-74
2024/01/15 03:07:37;;;;;;;8.93;1.13;;;;;;;1.38;100.00;100413.75;5052989;28;20116;-75
2024/01/15 03:10:02;;;;;;;8.80;1.05;;;;;;;1.31;100.00;100414.22;5053268;28;20480;-74
2024/01/15 03:12:28;;;;;;;16.10;2.40;;;;;;;1.26;100.00;100406.63;5053062;28;20477;-75
2024/01/15 03:14:53;;;;;;;12.13;1.58;;;;;;;1.24;100.00;100413.75;5052934;28;20103;-74
2024/01/15 03:17:19;;;;;;;15.77;2.20;;;;;;;1.23;100.00;100412.03;5053389;28;20025;-75
2024/01/15 03:19:44;;;;;;;7.60;1.35;;;;;;;1.23;100.00;100397.16;5053230;28;20055;-74
2024/01/15 03:22:10;;;;;;;11.38;1.67;;;;;;;1.30;100.00;100402.88;5052908;28;20529;-74
2024/01/15 03:24:35;;;;;;;8.75;1.63;;;;;;;1.44;100.00;100393.38;5052845;28;20029;-74
2024/01/15 03:27:01;;;;;;;9.57;1.27;;;;;;;1.47;100.00;100415.00;5052945;28;20029;-75
2024/01/15 03:29:26;;;;;;;3.00;1.08;;;;;;;1.38;100.00;100400.66;5051731;28;20025;-74
2024/01/15 03:31:52;;;;;;;6.88;1.05;;;;;;;1.18;100.00;100399.22;5052715;28;20095;-74
2024/01/15 03:34:17;;;;;;;8.18;0.98;;;;;;;0.99;100.00;100393.34;5052531;28;20469;-75
2024/01/15 03:36:43;;;;;;;3.75;0.93;;;;;;;0.83;100.00;100393.38;5053031;28;20041;-74
2024/01/15 03:39:09;;;;;;;5.03;0.65;;;;;;;0.78;100.00;100390.19;5053769;28;20036;-75
2024/01/15 03:41:34;;;;;;;2.60;0.80;;;;;;;0.74;100.00;100388.66;5052827;28;20492;-75
2024/01/15 03:44:00;;;;;;;4.88;0.82;;;;;;;0.64;100.00;100393.56;5052869;28;20037;-74
2024/01/15 03:46:25;;;;;;;3.03;0.63;;;;;;;0.58;100.00;100383.44;5052894;28;20031;-75
2024/01/15 03:48:50;;;;;;;2.13;0.38;;;;;;;0.56;100.00;100380.06;5052978;28;20033;-76
2024/01/15 03:51:19;;;;;;;5.70;0.73;;;;;;;0.58;100.00;100381.66;5052751;28;20036;-74
2024/01/15 03:53:44;;;;;;;4.07;1.00;;;;;;;0.66;100.00;100382.09;5052184;28;20048;-74
2024/01/15 03:56:10;;;;;;;5.30;0.98;;;;;;;0.81;100.00;100376.91;5053796;28;20067;-74
2024/01/15 03:58:35;;;;;;;3.08;0.77;;;;;;;0.86;100.00;100365.22;5054940;28;20025;-73
2024/01/15 04:01:00;;;;;;;1.48;0.15;;;;;;;0.77;100.00;100367.53;5055870;28;20040;-74
2024/01/15 04:03:26;;;;;;;0.88;0.43;;;;;;;0.67;100.00;100364.59;5056266;28;20407;-75
2024/01/15 04:05:51;;;;;;;3.13;0.50;;;;;;;0.65;100.00;100374.31;5054900;28;20037;-73
2024/01/15 04:08:16;;;;;;;9.57;1.27;;;;;;;0.67;100.00;100378.53;5055611;28;20045;-76
2024/01/15 04:10:42;;;;;;;8.98;0.73;;;;;;;0.64;100.00;100376.09;5056270;28;20025;-74
2024/01/15 04:13:07;;;;;;;5.20;0.50;;;;;;;0.56;100.00;100375.69;5056253;28;20032;-73
2024/01/15 04:15:32;;;;;;;7.30;1.00;;;;;;;0.41;100.00;100373.91;5056255;28;20174;-73
2024/01/15 04:17:58;;;;;;;3.55;0.80;;;;;;;0.30;100.00;100367.50;5055620;28;20358;-74
2024/01/15 04:20:23;;;;;;;3.45;1.02;;;;;;;0.22;100.00;100367.06;5055547;28;20039;-74
2024/01/15 04:22:48;;;;;;;4.82;0.98;;;;;;;0.21;100.00;100373.25;5055529;28;20028;-73
2024/01/15 04:25:14;;;;;;;9.05;1.48;;;;;;;0.30;100.00;100391.06;5054853;28;20033;-73
2024/01/15 04:27:39;;;;;;;6.78;1.25;;;;;;;0.33;100.00;100395.28;5056160;28;20047;-74
2024/01/15 04:30:05;;;;;;;5.72;1.05;;;;;;;0.23;100.00;100396.72;5055542;28;20033;-73
2024/01/15 04:32:30;;;;;;;6.28;1.08;;;;;;;0.04;100.00;100402.94;5055341;28;20389;-74
2024/01/15 04:34:56;;;;;;;5.32;0.90;;;;;;;-0.15;100.00;100405.69;5055546;28;20033;-73
2024/01/15 04:37:21;;;;;;;3.42;0.90;;;;;;;-0.31;100.00;100403.03;5055095;28;20056;-73
2024/01/15 04:39:46;;;;;;;4.65;0.88;;;;;;;-0.39;100.00;100392.13;5055944;28;20505;-73
2024/01/15 04:42:12;;;;;;;6.00;1.00;;;;;;;-0.44;100.00;100381.91;5055181;28;20029;-72
2024/01/15 04:44:37;;;;;;;7.78;1.45;;;;;;;-0.42;100.00;100374.84;5054108;28;20028;-74
2024/01/15 04:47:03;;;;;;;6.60;1.45;;;;;;;-0.42;100.00;100372.22;5055474;28;20388;-74
2024/01/15 04:49:29;;;;;;;6.35;1.00;;;;;;;-0.41;100.00;100367.84;5055263;28;20086;-73
2024/01/15 04:51:54;;;;;;;9.95;2.00;;;;;;;-0.43;100.00;100356.63;5055082;28;20393;-73
2024/01/15 04:54:20;;;;;;;2.47;0.70;;;;;;;-0.49;100.00;100360.41;5055156;28;20029;-73
2024/01/15 04:56:45;;;;;;;6.47;1.17;;;;;;;-0.52;100.00;100351.84;5053887;28;20543;-73
2024/01/15 04:59:11;;;;;;;5.43;0.63;;;;;;;-0.55;100.00;100358.09;5054889;28;20036;-73
2024/01/15 05:01:36;;;;;;;5.68;1.33;;;;;;;-0.62;100.00;100346.28;5055037;28;20040;-74
2024/01/15 05:04:02;;;;;;;9.63;1.42;;;;;;;-0.69;100.00;100342.28;5055128;28;20069;-73
2024/01/15 05:06:27;;;;;;;4.03;0.82;;;;;;;-0.72;100.00;100340.66;5055000;28;20033;-74
2024/01/15 05:08:53;;;;;;;4.53;0.60;;;;;;;-0.76;100.00;100336.50;5054407;28;20090;-73
2024/01/15 05:11:18;;;;;;;7.78;1.55;;;;;;;-0.76;100.00;100347.84;5053580;28;20029;-73
2024/01/15 05:13:44;;;;;;;16.73;2.13;;;;;;;-0.69;100.00;100355.34;5053688;28;20032;-73
2024/01/15 05:16:09;;;;;;;8.02;1.00;;;;;;;-0.59;100.00;100361.78;5054648;28;20032;-73
2024/01/15 05:18:34;;;;;;;7.70;1.20;;;;;;;-0.50;100.00;100357.88;5054645;28;20033;-72
2024/01/15 05:21:00;;;;;;;7.53;1.10;;;;;;;-0.50;100.00;100356.09;5054620;28;20469;-73
2024/01/15 05:23:25;;;;;;;2.20;0.70;;;;;;;-0.49;100.00;100355.16;5054371;28;20527;-74
2024/01/15 05:25:50;;;;;;;9.38;1.40;;;;;;;-0.42;100.00;100353.94;5054538;28;20397;-79
2024/01/15 05:28:16;;;;;;;10.50;1.23;;;;;;;-0.32;100.00;100346.44;5054471;28;20052;-73
2024/01/15 05:30:41;;;;;;;5.82;1.17;;;;;;;-0.20;100.00;100345.78;5054722;28;20041;-73
2024/01/15 05:33:07;;;;;;;6.65;1.30;;;;;;;-0.13;100.00;100350.69;5054154;28;20115;-73
2024/01/15 05:35:33;;;;;;;6.25;1.20;;;;;;;-0.06;100.00;100339.81;5054023;28;20033;-74
2024/01/15 05:37:59;;;;;;;18.63;1.73;;;;;;;0.07;100.00;100341.75;5054252;28;20048;-73
2024/01/15 05:40:24;;;;;;;19.52;1.70;;;;;;;0.16;100.00;100336.00;5054305;28;20044;-73
2024/01/15 05:42:49;;;;;;;11.27;0.98;;;;;;;0.17;100.00;100337.72;5054275;28;20037;-75
2024/01/15 05:45:15;;;;;;;11.10;1.10;;;;;;;0.19;100.00;100335.84;5054182;28;20029;-74
2024/01/15 05:47:40;;;;;;;8.23;0.98;;;;;;;0.17;100.00;100333.31;5054639;28;20082;-73
2024/01/15 05:50:06;;;;;;;8.10;1.15;;;;;;;0.18;100.00;100331.56;5053517;28;20442;-74
2024/01/15 05:52:32;;;;;;;5.63;0.88;;;;;;;0.14;100.00;100340.50;5054058;28;20041;-74
2024/01/15 05:54:57;;;;;;;11.13;1.38;;;;;;;0.13;100.00;100331.78;5053718;28;20040;-74
2024/01/15 05:57:22;;;;;;;12.50;1.42;;;;;;;0.16;100.00;100331.66;5053955;28;20457;-75
2024/01/15 05:59:48;;;;;;;6.18;0.70;;;;;;;0.22;100.00;100327.81;5053695;28;20029;-73
2024/01/15 06:02:13;;;;;;;6.53;1.52;;;;;;;0.35;100.00;100328.00;5054152;28;20072;-76
2024/01/15 06:04:38;;;;;;;6.13;0.77;;;;;;;0.48;100.00;100342.06;5053926;28;20029;-73
2024/01/15 06:07:04;;;;;;;8.20;1.17;;;;;;;0.61;100.00;100342.25;5053771;28;20041;-74
2024/01/15 06:09:29;;;;;;;7.63;1.30;;;;;;;0.66;100.00;100340.19;5053533;28;20542;-75
2024/01/15 06:11:55;;;;;;;7.30;0.73;;;;;;;0.62;100.00;100369.25;5053986;28;20036;-74
2024/01/15 06:14:20;;;;;;;8.25;1.27;;;;;;;0.32;100.00;100378.72;5053863;28;20041;-74
2024/01/15 06:16:46;;;;;;;7.10;1.10;;;;;;;0.02;100.00;100376.03;5053602;28;20060;-74
2024/01/15 06:19:11;;;;;;;5.72;1.10;;;;;;;-0.27;100.00;100374.94;5052833;28;20037;-72
2024/01/15 06:21:36;;;;;;;2.58;0.43;;;;;;;-0.47;100.00;100360.31;5053777;28;20108;-72
2024/01/15 06:24:02;;;;;;;8.80;1.17;;;;;;;-0.64;100.00;100348.97;5053736;28;20106;-72
2024/01/15 06:26:27;;;;;;;12.48;1.73;;;;;;;-0.76;100.00;100341.75;5053182;28;20029;-72
2024/01/15 06:28:53;;;;;;;7.20;1.33;;;;;;;-0.86;100.00;100333.56;5052085;28;20033;-73
2024/01/15 06:31:18;;;;;;;6.35;0.80;;;;;;;-0.93;100.00;100332.16;5052364;28;20044;-72
2024/01/15 06:33:45;;;;;;;8.98;1.10;;;;;;;-0.99;100.00;100329.88;5052378;28;20029;-73
2024/01/15 06:36:10;;;;;;;5.10;1.55;;;;;;;-1.06;100.00;100342.38;5052954;28;20069;-73
2024/01/15 06:38:36;;;;;;;8.02;1.48;;;;;;;-1.09;100.00;100339.91;5053561;28;20084;-73
2024/01/15 06:41:02;;;;;;;10.77;1.40;;;;;;;-1.04;100.00;100342.31;5053604;28;20040;-78
2024/01/15 06:43:28;;;;;;;6.97;0.77;;;;;;;-1.02;100.00;100330.84;5053460;28;20354;-73
2024/01/15 06:45:53;;;;;;;8.23;1.52;;;;;;;-0.97;100.00;100328.00;5052867;28;20033;-73
2024/01/15 06:48:18;;;;;;;4.20;1.00;;;;;;;-0.89;100.00;100325.88;5053022;28;20033;-73
2024/01/15 06:50:44;;;;;;;10.82;1.30;;;;;;;-0.84;100.00;100315.19;5052816;28;20044;-73
2024/01/15 06:53:09;;;;;;;10.18;1.95;;;;;;;-0.76;100.00;100334.78;5052083;28;20033;-73
2024/01/15 06:55:35;;;;;;;10.35;1.55;;;;;;;-0.69;100.00;100335.28;5053651;28;20076;-72
2024/01/15 06:58:00;;;;;;;13.52;1.60;;;;;;;-0.57;100.00;100345.13;5052887;28;20457;-73
2024/01/15 07:00:27;;;;;;;5.88;1.13;;;;;;;-0.47;100.00;100345.47;5052937;28;20033;-72
2024/01/15 07:02:53;;;;;;;19.92;1.60;;;;;;;-0.41;100.00;100354.75;5052533;28;20083;-73
2024/01/15 07:05:18;;;;;;;7.25;1.13;;;;;;;-0.44;100.00;100347.91;5053220;28;20420;-73
2024/01/15 07:07:43;;;;;;;9.50;1.30;;;;;;;-0.47;100.00;100337.63;5053716;28;20523;-72
2024/01/15 07:10:10;;;;;;;9.65;1.92;;;;;;;-0.47;100.00;100342.84;5053146;28;20396;-73
2024/01/15 07:12:35;;;;;;;10.85;1.33;;;;;;;-0.48;100.00;100327.25;5053474;28;20075;-72
2024/01/15 07:15:01;;;;;;;8.40;1.17;;;;;;;-0.47;100.00;100311.50;5052872;28;20464;-73
2024/01/15 07:17:27;;;;;;;8.32;1.13;;;;;;;-0.41;100.00;100307.72;5052973;28;20128;-73
2024/01/15 07:19:52;;;;;;;11.70;1.40;;;;;;;-0.37;100.00;100322.31;5052800;28;20080;-73
2024/01/15 07:22:17;;;;;;;15.73;1.48;;;;;;;-0.36;100.00;100317.00;5052773;28;20036;-74
2024/01/15 07:24:46;;;;;;;10.63;2.13;;;;;;;-0.29;100.00;100295.75;5053291;28;20033;-73
2024/01/15 07:27:11;;;;;;;13.85;2.35;;;;;;;-0.14;100.00;100320.22;5052521;28;20127;-73
2024/01/15 07:29:37;;;;;;;17.33;2.05;;;;;;;0.02;100.00;100312.41;5051938;28;20120;-73
2024/01/15 07:32:03;;;;;;;12.93;1.70;;;;;;;0.07;100.00;100313.81;5057231;28;20080;-73
2024/01/15 07:34:29;;;;;;;15.27;1.88;;;;;;;0.10;100.00;100308.41;5056866;28;20033;-74
2024/01/15 07:36:54;;;;;;;17.90;1.80;;;;;;;0.19;100.00;100321.91;5056065;28;20048;-73
2024/01/15 07:39:19;;;;;;;14.25;1.90;;;;;;;0.29;100.00;100305.63;5057252;28;20049;-74
2024/01/15 07:41:45;;;;;;;15.95;1.73;;;;;;;0.41;100.00;100314.56;5057106;28;20045;-73
2024/01/15 07:44:10;;;;;;;4.55;1.00;;;;;;;0.48;100.00;100307.22;5056717;28;20056;-74
2024/01/15 07:46:35;;;;;;;6.57;1.52;;;;;;;0.57;100.00;100311.06;5056044;28;20037;-74
2024/01/15 07:49:01;;;;;;;7.63;1.92;;;;;;;0.60;100.00;100306.50;5055044;28;20037;-74
2024/01/15 07:51:26;;;;;;;13.23;2.10;;;;;;;0.78;100.00;100306.38;5056599;28;20049;-74
2024/01/15 07:53:53;;;;;;;10.75;1.48;;;;;;;0.88;100.00;100323.22;5056311;28;20033;-73
2024/01/15 07:56:19;;;;;;;9.43;1.50;;;;;;;0.91;100.00;100323.06;5055961;28;20036;-73
2024/01/15 07:58:44;;;;;;;7.03;1.17;;;;;;;0.85;100.00;100331.25;5056176;28;20037;-74
2024/01/15 08:01:10;;;;;;;9.32;1.77;;;;;;;0.73;100.00;100324.94;5056353;28;20064;-75
2024/01/15 08:03:35;;;;;;;15.00;3.40;;;;;;;0.61;100.00;100323.91;5055391;28;20029;-73
2024/01/15 08:06:00;;;;;;;12.73;1.77;;;;;;;0.52;100.00;100324.41;5055861;28;20040;-74
2024/01/15 08:08:26;;;;;;;13.80;1.38;;;;;;;0.43;100.00;100317.09;5054964;28;20134;-73
2024/01/15 08:10:55;;;;;;;8.52;1.63;;;;;;;0.39;100.00;100316.41;5054849;28;20029;-75
2024/01/15 08:13:20;;;;;;;10.18;1.40;;;;;;;0.41;100.00;100324.19;5056092;28;20044;-75
2024/01/15 08:15:46;;;;;;;9.85;1.75;;;;;;;0.41;100.00;100319.78;5056408;28;20033;-73
2024/01/15 08:18:12;;;;;;;5.13;0.85;;;;;;;0.47;100.00;100335.13;5055698;28;20128;-74
2024/01/15 08:20:37;;;;;;;10.75;1.42;;;;;;;0.47;100.00;100329.06;5055899;28;20028;-73
2024/01/15 08:23:03;;;;;;;9.68;1.33;;;;;;;0.49;100.00;100327.19;5055860;28;20473;-74
2024/01/15 08:25:28;;;;;;;13.50;1.48;;;;;;;0.52;100.00;100324.41;5055771;28;20461;-73
2024/01/15 08:27:54;;;;;;;8.70;1.52;;;;;;;0.57;100.00;100314.53;5055788;28;20037;-75
2024/01/15 08:30:20;;;;;;;9.02;1.40;;;;;;;0.66;100.00;100334.13;5055483;28;20126;-78
2024/01/15 08:32:45;;;;;;;4.60;0.88;;;;;;;0.80;100.00;100336.75;5054185;28;20056;-73
2024/01/15 08:35:11;;;;;;;8.27;1.38;;;;;;;0.92;100.00;100335.22;5055795;28;20542;-72
2024/01/15 08:37:38;;;;;;;8.70;1.95;;;;;;;0.91;100.00;100330.94;5055160;28;20175;-73
2024/01/15 08:40:03;;;;;;;7.80;1.38;;;;;;;0.86;100.00;100317.22;5055321;28;20494;-73
2024/01/15 08:42:29;;;;;;;5.20;1.42;;;;;;;0.92;100.00;100318.66;5055241;28;20033;-74
2024/01/15 08:44:54;;;;;;;6.75;0.77;;;;;;;1.07;100.00;100309.06;5054262;28;20033;-73
2024/01/15 08:47:20;;;;;;;9.00;1.23;;;;;;;1.27;100.00;100327.06;5055087;28;20037;-74
2024/01/15 08:49:46;;;;;;;4.45;1.20;;;;;;;1.28;100.00;100323.47;5055348;28;20029;-74
2024/01/15 08:52:11;;;;;;;6.35;1.30;;;;;;;1.27;100.00;100344.53;5055415;28;20036;-73
2024/01/15 08:54:37;;;;;;;5.78;1.02;;;;;;;1.14;100.00;100349.69;5055475;28;20036;-73
2024/01/15 08:57:02;;;;;;;4.93;1.10;;;;;;;0.91;100.00;100370.22;5055206;28;20083;-73
2024/01/15 08:59:28;;;;;;;6.10;1.58;;;;;;;0.58;100.00;100350.22;5055153;28;20098;-74
2024/01/15 09:01:53;;;;;;;8.27;1.20;;;;;;;0.34;100.00;100358.56;5055143;28;20450;-74
2024/01/15 09:04:19;;;;;;;6.70;1.55;;;;;;;0.12;100.00;100353.66;5055012;28;20102;-74
2024/01/15 09:06:47;;;;;;;4.78;1.50;;;;;;;0.01;100.00;100360.41;5054943;28;20494;-74
2024/01/15 09:09:14;;;;;;;14.00;1.55;;;;;;;-0.03;100.00;100363.19;5054713;28;20516;-74
2024/01/15 09:11:40;;;;;;;10.23;1.63;;;;;;;-0.03;100.00;100364.94;5053633;28;20063;-75
2024/01/15 09:14:05;;;;;;;8.55;1.70;;;;;;;-0.01;100.00;100360.50;5054851;28;20040;-74
2024/01/15 09:16:31;;;;;;;4.72;1.20;;;;;;;0.07;100.00;100367.91;5054554;28;20029;-73
2024/01/15 09:18:57;;;;;;;14.75;1.52;;;;;;;0.09;100.00;100360.81;5053711;28;20052;-74
2024/01/15 09:21:24;;;;;;;7.18;1.63;;;;;;;0.13;100.00;100362.34;5053442;28;20055;-77
2024/01/15 09:23:50;;;;;;;16.17;2.17;;;;;;;0.20;100.00;100366.31;5054913;28;20339;-75
2024/01/15 09:26:15;;;;;;;9.23;1.40;;;;;;;0.27;100.00;100374.66;5053323;28;20093;-74
2024/01/15 09:28:40;;;;;;;4.63;0.85;;;;;;;0.28;100.00;100379.81;5054765;28;20111;-75
2024/01/15 09:31:06;;;;;;;13.55;1.15;;;;;;;0.27;100.00;100361.56;5053123;28;20393;-77
2024/01/15 09:33:31;;;;;;;5.68;0.90;;;;;;;0.29;100.00;100371.03;5036637;28;20116;-76
2024/01/15 09:35:56;;;;;;;10.45;1.52;;;;;;;0.37;100.00;100373.22;5052663;28;20033;-77
2024/01/15 09:38:23;;;;;;;3.47;0.85;;;;;;;0.55;100.00;100391.47;5054058;28;20079;-75
2024/01/15 09:40:50;;;;;;;6.32;1.10;;;;;;;0.73;100.00;100366.03;5036706;28;20044;-75
2024/01/15 09:43:17;;;;;;;6.05;1.20;;;;;;;0.73;100.00;100355.53;5054344;28;20489;-76
2024/01/15 09:45:43;;;;;;;6.88;0.95;;;;;;;0.63;100.00;100348.22;5052891;28;20146;-74
2024/01/15 09:48:08;;;;;;;8.23;1.80;;;;;;;0.57;100.00;100343.34;5054185;28;20039;-74
2024/01/15 09:50:34;;;;;;;10.05;2.25;;;;;;;0.55;100.00;100341.72;5054054;28;20108;-75
2024/01/15 09:53:00;;;;;;;4.43;0.98;;;;;;;0.57;100.00;100348.56;5053521;28;20087;-75
2024/01/15 09:55:26;;;;;;;5.03;1.73;;;;;;;0.63;100.00;100370.94;5053512;28;20033;-74
2024/01/15 09:57:55;;;;;;;7.35;1.35;;;;;;;0.63;100.00;100366.53;5054098;28;20039;-73
2024/01/15 10:00:21;;;;;;;11.10;1.27;;;;;;;0.55;100.00;100381.84;5052476;28;20584;-74
2024/01/15 10:02:46;;;;;;;9.20;1.77;;;;;;;0.49;100.00;100375.19;5054082;28;20115;-75
2024/01/15 10:05:12;;;;;;;4.90;1.08;;;;;;;0.48;100.00;100375.28;5053623;28;20489;-75
2024/01/15 10:07:38;;;;;;;4.13;0.88;;;;;;;0.46;100.00;100374.50;5054009;28;20033;-75
2024/01/15 10:10:04;;;;;;;6.75;1.55;;;;;;;0.48;100.00;100372.66;5054146;28;20036;-74
2024/01/15 10:12:29;;;;;;;15.10;1.33;;;;;;;0.51;100.00;100390.81;5053780;28;20381;-75
2024/01/15 10:14:56;;;;;;;7.18;1.20;;;;;;;0.60;100.00;100384.19;5053671;28;20143;-74
2024/01/15 10:17:21;;;;;;;5.75;0.90;;;;;;;0.74;100.00;100394.75;5054170;28;20028;-74
2024/01/15 10:19:47;;;;;;;3.28;1.00;;;;;;;0.84;100.00;100379.34;5053327;28;20033;-74
2024/01/15 10:22:15;;;;;;;4.55;1.20;;;;;;;0.90;100.00;100381.63;5053644;28;20056;-73
2024/01/15 10:24:41;;;;;;;6.15;1.10;;;;;;;0.91;100.00;100377.22;5053290;28;20393;-76
2024/01/15 10:27:11;;;;;;;7.40;1.65;;;;;;;0.92;100.00;100386.78;5052179;28;20119;-75
2024/01/15 10:29:37;;;;;;;6.30;1.27;;;;;;;1.00;100.00;100395.88;5052177;28;20497;-74
2024/01/15 10:32:08;;;;;;;5.97;1.10;;;;;;;1.19;100.00;100374.66;5051985;28;20036;-74
2024/01/15 10:34:38;;;;;;;12.88;1.85;;;;;;;1.58;100.00;100377.63;5053313;28;20571;-75
2024/01/15 10:37:04;;;;;;;9.27;1.30;;;;;;;1.81;100.00;100376.25;5053255;28;20029;-75
2024/01/15 10:39:30;;;;;;;5.38;1.35;;;;;;;1.82;100.00;100380.56;5053783;28;20065;-74
2024/01/15 10:41:55;;;;;;;7.18;1.95;;;;;;;1.75;100.00;100374.00;5052150;28;20025;-75
2024/01/15 10:44:21;;;;;;;10.50;1.45;;;;;;;1.81;100.00;100385.88;5053504;28;20483;-76
2024/01/15 10:46:47;;;;;;;9.07;1.10;;;;;;;1.93;100.00;100391.22;5052186;28;20040;-74
2024/01/15 10:49:12;;;;;;;5.85;1.67;;;;;;;2.23;100.00;100392.06;5053152;28;20401;-76
2024/01/15 10:51:38;;;;;;;8.80;1.45;;;;;;;2.63;100.00;100392.16;5053811;28;20025;-76
2024/01/15 10:54:05;;;;;;;6.57;1.38;;;;;;;2.89;100.00;100379.91;5053046;28;20033;-77
2024/01/15 10:56:33;;;;;;;9.20;1.40;;;;;;;3.08;100.00;100379.56;5053085;28;20041;-75
2024/01/15 10:58:59;;;;;;;4.80;1.30;;;;;;;3.21;100.00;100371.69;5052898;28;20025;-75
2024/01/15 11:01:24;;;;;;;5.70;1.20;;;;;;;3.39;100.00;100377.50;5052989;28;20055;-75
2024/01/15 11:03:50;;;;;;;5.00;1.45;;;;;;;3.43;100.00;100380.75;5051991;28;20499;-75
2024/01/15 11:06:20;;;;;;;4.90;1.45;;;;;;;3.34;100.00;100371.69;5055880;28;20461;-77
2024/01/15 11:08:49;;;;;;;3.15;0.98;;;;;;;2.99;100.00;100367.88;5055867;28;20480;-75
2024/01/15 11:11:16;;;;;;;3.90;0.82;;;;;;;2.87;100.00;100367.84;5057326;28;20061;-75
2024/01/15 11:13:44;;;;;;;2.00;1.13;;;;;;;2.74;100.00;100380.94;5057489;28;20021;-76